Terminal Aerodrome Forecast
Issued by NWS

Home | Current Version | Previous Version | Text Only | Print | Product List | Glossary Off
Versions: 1 2 3 4 5 6 7 8 9 10 11 12 13 14 15 16 17 18 19 20 21 22 23

000
FTUS43 KICT 302001 AAA
TAFRSL
TAF AMD
KRSL 302001Z 3020/3118 15014KT P6SM SCT040 BKN070
     FM310100 12008KT P6SM SCT070 BKN150
     FM310900 16009KT P6SM SCT150 WS020/20035KT
     FM311300 18013KT P6SM SCT250=

USA.gov is the U.S. government's official web portal to all federal, state and local government web resources and services.